Massachusetts — WDH5399 — position and weather

sailwx.info

Track history (hours):
 
Tides and Currents Weather Stations Pressure Air Temp Water Temp Dewpoint Dewpoint Depression Visibility Wind Speed Wind Dir Waves Ship Positions

Massachusetts

Owner: Massachusetts Bay Lines 60 rowes wharf boston, ma 02110, boston, MA. More information available from US FCC via Universal Licensing System and Coast Guard Vessel Documentation Center.

Last reported at 2018-Jan-19 23:38 UTC. Time now 2018-Jan-20 17:24 UTC.
Position N 42°15' W 070°58'.

Length 30 m.

Type: Passenger vessel. MMSI: 367627580.

Date/timePositionNaut miles runAvg speedWind from/ knotsBaromVisibWave heightAir tempDewpointWater temp
2018-Jan-19 23:38N 42°15' W 070°58'214.2
2018-Jan-19 23:28N 42°16' W 070°55'5 8.7
2018-Jan-19 22:54N 42°20' W 070°60'3 7.0
2018-Jan-19 22:28N 42°21' W 071°03'611.8
2018-Jan-19 21:58N 42°17' W 070°57'0 0.7
2018-Jan-19 21:25N 42°17' W 070°57'615.3
2018-Jan-19 21:00N 42°21' W 071°03'0 0.0
2018-Jan-19 20:30N 42°21' W 071°03'0 0.0
2018-Jan-19 19:56N 42°21' W 071°03'0 0.0
2018-Jan-19 19:31N 42°21' W 071°03'0 0.0
2018-Jan-19 18:49N 42°21' W 071°03'0 0.0
2018-Jan-19 14:36N 42°21' W 071°03'1 4.8
2018-Jan-19 14:30N 42°22' W 071°02'1 1.0
2018-Jan-19 13:59N 42°21' W 071°03'813.6
2018-Jan-19 13:22N 42°15' W 070°55'4 9.3
2018-Jan-19 12:55N 42°18' W 070°59'4 9.2
2018-Jan-19 12:27N 42°21' W 071°03'8 6.9
2018-Jan-19 11:21N 42°15' W 070°57'1 0.0
2018-Jan-18 23:39N 42°15' W 070°58'211.7
2018-Jan-18 23:27N 42°16' W 070°55'4 9.1
2018-Jan-18 22:59N 42°19' W 070°59'4 8.4
2018-Jan-18 22:30N 42°21' W 071°03'510.2
2018-Jan-18 22:00N 42°18' W 070°58'1 2.4
2018-Jan-18 21:26N 42°17' W 070°57'6 5.1
2018-Jan-18 20:10N 42°21' W 071°03'0 0.0
2018-Jan-18 19:57N 42°21' W 071°03'0 0.0
2018-Jan-18 15:31N 42°21' W 071°03'0 0.0
2018-Jan-18 14:02N 42°21' W 071°03'0 4.0
2018-Jan-18 14:00N 42°21' W 071°03'8 9.2
2018-Jan-18 13:08N 42°16' W 070°55'211.7
2018-Jan-18 13:00N 42°17' W 070°57'612.2
2018-Jan-18 12:29N 42°21' W 071°03'814.7
2018-Jan-18 11:56N 42°16' W 070°55'  
Track history (hours):
 
Tides and Currents Weather Stations Pressure Air Temp Water Temp Dewpoint Dewpoint Depression Visibility Wind Speed Wind Dir Waves Ship Positions

Massachusetts

Owner: Massachusetts Bay Lines 60 rowes wharf boston, ma 02110, boston, MA. More information available from US FCC via Universal Licensing System and Coast Guard Vessel Documentation Center.

Last reported at 2018-Jan-19 23:38 UTC. Time now 2018-Jan-20 17:24 UTC.
Position N 42°15' W 070°58'.

Length 30 m.

Type: Passenger vessel. MMSI: 367627580.

Date/timePositionNaut miles runAvg speedWind from/ knotsBaromVisibWave heightAir tempDewpointWater temp
2018-Jan-19 23:38N 42°15' W 070°58'214.2
2018-Jan-19 23:28N 42°16' W 070°55'5 8.7
2018-Jan-19 22:54N 42°20' W 070°60'3 7.0
2018-Jan-19 22:28N 42°21' W 071°03'611.8
2018-Jan-19 21:58N 42°17' W 070°57'0 0.7
2018-Jan-19 21:25N 42°17' W 070°57'615.3
2018-Jan-19 21:00N 42°21' W 071°03'0 0.0
2018-Jan-19 20:30N 42°21' W 071°03'0 0.0
2018-Jan-19 19:56N 42°21' W 071°03'0 0.0
2018-Jan-19 19:31N 42°21' W 071°03'0 0.0
2018-Jan-19 18:49N 42°21' W 071°03'0 0.0
2018-Jan-19 14:36N 42°21' W 071°03'1 4.8
2018-Jan-19 14:30N 42°22' W 071°02'1 1.0
2018-Jan-19 13:59N 42°21' W 071°03'813.6
2018-Jan-19 13:22N 42°15' W 070°55'4 9.3
2018-Jan-19 12:55N 42°18' W 070°59'4 9.2
2018-Jan-19 12:27N 42°21' W 071°03'8 6.9
2018-Jan-19 11:21N 42°15' W 070°57'1 0.0
2018-Jan-18 23:39N 42°15' W 070°58'211.7
2018-Jan-18 23:27N 42°16' W 070°55'4 9.1
2018-Jan-18 22:59N 42°19' W 070°59'4 8.4
2018-Jan-18 22:30N 42°21' W 071°03'510.2
2018-Jan-18 22:00N 42°18' W 070°58'1 2.4
2018-Jan-18 21:26N 42°17' W 070°57'6 5.1
2018-Jan-18 20:10N 42°21' W 071°03'0 0.0
2018-Jan-18 19:57N 42°21' W 071°03'0 0.0
2018-Jan-18 15:31N 42°21' W 071°03'0 0.0
2018-Jan-18 14:02N 42°21' W 071°03'0 4.0
2018-Jan-18 14:00N 42°21' W 071°03'8 9.2
2018-Jan-18 13:08N 42°16' W 070°55'211.7
2018-Jan-18 13:00N 42°17' W 070°57'612.2
2018-Jan-18 12:29N 42°21' W 071°03'814.7
2018-Jan-18 11:56N 42°16' W 070°55'  

Dump ship's entire track history